Hector, New York
Current Conditions -  °F | °C
As of 11:10 AM on Thursday 27 Nov 2014 (Local Time) from KPEO Reporting Station
Overcast Overcast  
Wind Chill: -4°   Ceiling: 1500
Heat Index: -1°   Visibility: 10mi
Dew Point: -4°   Wind: 5mph
Humidity: 79%   Direction: NA
Pressure: 30.03"   Gusts: NA
Location:  42.5°N, 76.87°W
Report Text: KPEO 271610Z AUTO VRB04KT 10SM OVC015 M01/M04 A3003 RMK AO2 T10111044
Loading
Personal Weather Stations






























Interactive Weather Map New forecast layout! Learn more

10-Day Weather Forecast

Advertisements
Track Severe Weather on mobile